Updated09/02/2023 7:44am 
 

Nearby Airport METAR Reports

 

KVSF - Springfield, Vermont, USA
Distance from station: WSW 8mi, 12km
Updated: 02/09/2023 6:54am
Clear
Clear
 Wind from calm
Wind: Calm
Temperature: 19°F , -7°C
Dew Point: 18°F , -8°C
Humidity: 93%
Barometer: 1025.1 hPa
Clouds: Clear
Visibility: 14 km
2023/02/09 11:54 KVSF 091154Z AUTO 00000KT 9SM CLR M07/M08 A3027 RMK AO2 SLP258 I1000 I6001 T10671078 11033 21067 50005
KLEB - Lebanon, New Hampshire, USA
Distance from station: N 18mi, 29km
Updated: 02/09/2023 6:53am
Clear
Clear
 Wind from calm
Wind: Calm
Temperature: 18°F , -8°C
Dew Point: 12°F , -11°C
Humidity: 79%
Barometer: 1025.1 hPa
Clouds: Clear
Visibility: 16 km
2023/02/09 11:53 KLEB 091153Z 00000KT 10SM CLR M08/M11 A3027 RMK AO2 SLP264 I1000 I6000 T10781106 11033 21078 51013
KRUT - Rutland State, Vermont, USA
Distance from station: WNW 31mi, 50km
Updated: 02/09/2023 6:56am
Clear
Clear
 Wind from ESE
Wind: ESE 9 km/h
Temperature: 27°F , -3°C
Wind Chill: 20°F , -7°C
Dew Point: 25°F , -4°C
Humidity: 93%
Barometer: 1024 hPa
Clouds: Clear
Visibility: 16 km
2023/02/09 11:56 KRUT 091156Z AUTO 11005KT 10SM CLR M03/M04 A3024 RMK AO2 SLP244 T10281044 10011 21033 50001 FZRANO $
 
KEEN - Keene/Dillant, New Hampshire, USA
Distance from station: S 34mi, 55km
Updated: 02/09/2023 6:56am
Mist, Clear
Mist, Clear
 Wind from calm
Wind: Calm
Temperature: 18°F , -8°C
Dew Point: 18°F , -8°C
Humidity: 100%
Summary: Mist
Clouds: Clear
Visibility: 10 km
2023/02/09 11:56 KEEN 091156Z AUTO 00000KT 6SM BR CLR M08/M08 RMK AO2 SLPNO T10781083 11050 21078 FZRANO $
K1P1 - Plymouth, New Hampshire, USA
Distance from station: NE 42mi, 67km
Updated: 02/09/2023 7:55am
Clear
Clear
 Wind from calm
Wind: Calm
Temperature: 21°F , -6°C
Dew Point: 21°F , -6°C
Humidity: 100%
Barometer: 1025.7 hPa
Clouds: Clear
Visibility: 16 km
2023/02/09 12:55 K1P1 091255Z AUTO 00000KT 10SM CLR M06/M06 A3029 RMK AO2 T10561061
KAFN - Jaffrey, New Hampshire, USA
Distance from station: SSE 44mi, 70km
Updated: 02/09/2023 6:52am
Clear
Clear
 Wind from calm
Wind: Calm
Temperature: 25°F , -4°C
Dew Point: 19°F , -7°C
Humidity: 80%
Barometer: 1024.4 hPa
Clouds: Clear
Visibility: 16 km
2023/02/09 11:52 KAFN 091152Z AUTO 00000KT 10SM CLR M04/M07 A3025 RMK AO2 SLP263 T10441067 10039 21044 50008
 
KCON - Concord, New Hampshire, USA
Distance from station: ESE 45mi, 73km
Updated: 02/09/2023 6:51am
Clear
Clear
 Wind from calm
Wind: Calm
Temperature: 19°F , -7°C
Dew Point: 18°F , -8°C
Humidity: 93%
Barometer: 1026.1 hPa
Clouds: Clear
Visibility: 14 km
2023/02/09 11:51 KCON 091151Z AUTO 00000KT 9SM CLR M07/M08 A3030 RMK AO2 SLP265 I1000 I6000 T10721083 11039 21078 51023
KLCI - Laconia Muni, New Hampshire, USA
Distance from station: ENE 49mi, 80km
Updated: 02/09/2023 6:56am
Clear
Clear
 Wind from W
Wind: W 9 km/h
Temperature: 27°F , -3°C
Wind Chill: 20°F , -7°C
Dew Point: 23°F , -5°C
Humidity: 86%
Barometer: 1025.4 hPa
Clouds: Clear
Visibility: 16 km
2023/02/09 11:56 KLCI 091156Z AUTO 26005KT 10SM CLR M03/M05 A3028 RMK AO2 SLP263 T10331050 11006 21050 51024 FZRANO
KDDH - Bennington, Vermont, USA
Distance from station: SW 55mi, 89km
Updated: 02/09/2023 6:54am
Clear
Clear
 Wind from calm
Wind: Calm
Temperature: 27°F , -3°C
Dew Point: 18°F , -8°C
Humidity: 69%
Barometer: 1023.4 hPa
Clouds: Clear
Visibility: 16 km
2023/02/09 11:54 KDDH 091154Z AUTO 00000KT 10SM CLR M03/M08 A3022 RMK AO2 SLP243 T10331078 11028 21056 58014
 
K6B0 - Middlebury, Vermont, USA
Distance from station: NW 56mi, 90km
Updated: 02/09/2023 7:35am
Clear
Clear
 Wind from calm
Wind: Calm
Temperature: 25°F , -4°C
Dew Point: 23°F , -5°C
Humidity: 93%
Barometer: 1023.7 hPa
Clouds: Clear
Visibility: 16 km
2023/02/09 12:35 K6B0 091235Z AUTO 00000KT 10SM CLR M04/M05 A3023 RMK AO2 T10421046
KMHT - Manchester, New Hampshire, USA
Distance from station: ESE 56mi, 90km
Updated: 02/09/2023 6:53am
Few Clouds
Few Clouds
 Wind from calm
Wind: Calm
Temperature: 27°F , -3°C
Dew Point: 21°F , -6°C
Humidity: 80%
Barometer: 1025.4 hPa
Clouds: Few Clouds
Visibility: 16 km
Cloud details: Few Clouds 25000 ft
2023/02/09 11:53 KMHT 091153Z 00000KT 10SM FEW250 M03/M06 A3028 RMK AO2 SLP272 T10331056 10000 21039 50016
KORE - Orange, Massachusetts, USA
Distance from station: S 56mi, 90km
Updated: 02/09/2023 6:52am
Clear
Clear
 Wind from calm
Wind: Calm
Temperature: 21°F , -6°C
Dew Point: 19°F , -7°C
Humidity: 93%
Barometer: 1025.4 hPa
Clouds: Clear
Visibility: 16 km
2023/02/09 11:52 KORE 091152Z AUTO 00000KT 10SM CLR M06/M07 A3028 RMK AO2 SLP261 I1000 I6000 T10611072 11033 21061 50001
 
KMPV - Montpelier/Barre, Vermont, USA
Distance from station: N 58mi, 93km
Updated: 02/09/2023 6:51am
Clear
Clear
 Wind from calm
Wind: Calm
Temperature: 25°F , -4°C
Dew Point: 18°F , -8°C
Humidity: 74%
Barometer: 1025.4 hPa
Clouds: Clear
Visibility: 16 km
2023/02/09 11:51 KMPV 091151Z AUTO 00000KT 10SM CLR M04/M08 A3028 RMK AO2 SLP270 T10391078 10000 21050 51018
KASH - Nashua/Boire Fld, New Hampshire, USA
Distance from station: SE 59mi, 95km
Updated: 02/09/2023 6:56am
Clear
Clear
 Wind from calm
Wind: Calm
Temperature: 21°F , -6°C
Dew Point: 21°F , -6°C
Humidity: 100%
Barometer: 1026.1 hPa
Clouds: Clear
Visibility: 16 km
2023/02/09 11:56 KASH 091156Z 00000KT 10SM CLR M06/M06 A3030 RMK AO2 SLP268 T10561056 11022 21056 50014
KAQW - North Adams, Massachusetts, USA
Distance from station: SW 62mi, 99km
Updated: 02/09/2023 6:52am
Clear
Clear
 Wind from calm
Wind: Calm
Temperature: 25°F , -4°C
Dew Point: 21°F , -6°C
Humidity: 86%
Barometer: 1024.7 hPa
Clouds: Clear
Visibility: 16 km
2023/02/09 11:52 KAQW 091152Z AUTO 00000KT 10SM CLR M04/M06 A3026 RMK AO2 SLP254 I6000 T10391056 11011 21056 58006
 
KGFL - Glens Falls, New York, USA
Distance from station: W 63mi, 101km
Updated: 02/09/2023 6:53am
Clear
Clear
 Wind from NW
Wind: NW 6 km/h
Temperature: 19°F , -7°C
Dew Point: 16°F , -9°C
Humidity: 86%
Barometer: 1024.7 hPa
Clouds: Clear
Visibility: 16 km
2023/02/09 11:53 KGFL 091153Z AUTO 31003KT 10SM CLR M07/M09 A3026 RMK AO2 SLP255 I1000 I6001 T10721089 11050 21078 58004 $
KFIT - Fitchburg, Massachusetts, USA
Distance from station: SSE 65mi, 105km
Updated: 02/09/2023 6:52am
Clear
Clear
 Wind from N
Wind: N 6 km/h
Temperature: 25°F , -4°C
Dew Point: 19°F , -7°C
Humidity: 80%
Barometer: 1025.7 hPa
Clouds: Clear
Visibility: 14 km
2023/02/09 11:52 KFIT 091152Z AUTO 35003KT 9SM CLR M04/M07 A3029 RMK AO2 SLP264 I1000 I6000 T10441072 11022 21056 50007
KDAW - Rochester, New Hampshire, USA
Distance from station: E 73mi, 118km
Updated: 02/09/2023 6:51am
Clear
Clear
 Wind from calm
Wind: Calm
Temperature: 27°F , -3°C
Dew Point: 21°F , -6°C
Humidity: 80%
Barometer: 1025.7 hPa
Clouds: Clear
Visibility: 16 km
2023/02/09 11:51 KDAW 091151Z AUTO 00000KT 10SM CLR M03/M06 A3029 RMK AO2 SLP258 T10331061 10017 21039 51025
 
K1V4 - St. Johnsbury, Vermont, USA
Distance from station: NNE 74mi, 119km
Updated: 02/09/2023 6:54am

 
Temperature: 19°F , -7°C
Dew Point: 18°F , -8°C
Humidity: 93%
Barometer: 1025.1 hPa
2023/02/09 11:54 K1V4 091154Z AUTO M07/M08 A3027 RMK AO1 SLP265 6//// 7//// T10671083 11028 21067 53022 PNO
KLWM - Lawrence, Massachusetts, USA
Distance from station: SE 77mi, 124km
Updated: 02/09/2023 6:54am
Clear
Clear
 Wind from calm
Wind: Calm
Temperature: 28°F , -2°C
Dew Point: 21°F , -6°C
Humidity: 74%
Barometer: 1026.8 hPa
Clouds: Clear
Visibility: 16 km
2023/02/09 11:54 KLWM 091154Z 00000KT 10SM CLR M02/M06 A3032 RMK AO2 SLP269 T10221056 10006 21028 51017



Flag Counter
free counter page views since 4/29/2009